Time;durP1;ratioP1;P1;durP2;ratioP2;P2;SDS_P1;SDS_P2;PMS_P1;PMS_P2;Temp;Humidity;BMP_temperature;BMP_pressure;BME280_temperature;BME280_humidity;BME280_pressure;Samples;Min_cycle;Max_cycle;Signal;HPM_P1;HPM_P2
2020/12/15 00:01:13;;;;;;;6.20;3.25;;;;;;;;;;5073616;28;20250;-59
2020/12/15 00:03:40;;;;;;;5.97;3.00;;;;;;;;;;5073517;28;20195;-54
2020/12/15 00:06:07;;;;;;;3.72;2.58;;;;;;;;;;5074340;28;20231;-54
2020/12/15 00:08:34;;;;;;;5.05;2.42;;;;;;;;;;5072876;28;20212;-50
2020/12/15 00:11:03;;;;;;;4.30;2.90;;;;;;;;;;5075062;28;20255;-52
2020/12/15 00:13:32;;;;;;;4.95;2.78;;;;;;;;;;5072932;28;20301;-52
2020/12/15 00:16:03;;;;;;;5.75;3.17;;;;;;;;;;5074205;28;20195;-52
2020/12/15 00:18:39;;;;;;;5.13;2.72;;;;;;;;;;5067948;28;20205;-52
2020/12/15 00:21:11;;;;;;;10.75;2.97;;;;;;;;;;5051240;28;20243;-56
2020/12/15 00:26:15;;;;;;;3.57;2.30;;;;;;;;;;5069983;28;20244;-49
2020/12/15 00:28:44;;;;;;;10.48;2.80;;;;;;;;;;5075192;28;20209;-54
2020/12/15 00:31:25;;;;;;;3.30;2.50;;;;;;;;;;5071977;28;20208;-56
2020/12/15 00:33:54;;;;;;;6.90;3.88;;;;;;;;;;5071329;28;20278;-53
2020/12/15 00:39:13;;;;;;;4.72;2.80;;;;;;;;;;5065083;28;20224;-58
2020/12/15 00:41:48;;;;;;;4.20;2.42;;;;;;;;;;5072582;28;20232;-56
2020/12/15 00:44:24;;;;;;;4.60;2.65;;;;;;;;;;5072765;28;20214;-53
2020/12/15 00:46:51;;;;;;;4.97;2.58;;;;;;;;;;5074502;28;20354;-52
2020/12/15 00:49:28;;;;;;;3.42;1.90;;;;;;;;;;5073098;28;20197;-47
2020/12/15 00:51:59;;;;;;;4.03;2.40;;;;;;;;;;5073955;28;20218;-51
2020/12/15 00:54:26;;;;;;;4.43;2.95;;;;;;;;;;5074537;28;20216;-61
2020/12/15 00:56:54;;;;;;;3.70;2.22;;;;;;;;;;5073753;28;20220;-49
2020/12/15 00:59:21;;;;;;;9.38;2.78;;;;;;;;;;5074518;28;20212;-61
2020/12/15 01:01:47;;;;;;;3.80;2.58;;;;;;;;;;5072085;28;20231;-52
2020/12/15 01:04:33;;;;;;;6.18;2.25;;;;;;;;;;5073463;28;20203;-53
2020/12/15 01:07:00;;;;;;;3.83;2.47;;;;;;;;;;5075198;28;20216;-51
2020/12/15 01:09:31;;;;;;;4.35;2.40;;;;;;;;;;5072372;28;20196;-57
2020/12/15 01:11:58;;;;;;;4.07;2.75;;;;;;;;;;5072941;28;20215;-52
2020/12/15 01:14:30;;;;;;;4.97;3.00;;;;;;;;;;5072540;28;20203;-47
2020/12/15 01:16:59;;;;;;;5.93;3.05;;;;;;;;;;5073124;28;20206;-49
2020/12/15 01:19:26;;;;;;;5.47;2.88;;;;;;;;;;5072703;28;20213;-55
2020/12/15 01:21:56;;;;;;;5.70;3.00;;;;;;;;;;5072026;28;20220;-48
2020/12/15 01:24:28;;;;;;;5.53;2.80;;;;;;;;;;5072677;28;20200;-54
2020/12/15 01:27:00;;;;;;;5.90;2.78;;;;;;;;;;5072406;28;20377;-54
2020/12/15 01:29:28;;;;;;;8.15;2.60;;;;;;;;;;5071424;28;20229;-55
2020/12/15 01:31:55;;;;;;;7.32;3.03;;;;;;;;;;5071309;28;20249;-52
2020/12/15 01:34:27;;;;;;;6.45;3.45;;;;;;;;;;5073270;28;20244;-52
2020/12/15 01:37:03;;;;;;;6.88;3.20;;;;;;;;;;5073070;28;20211;-51
2020/12/15 01:39:30;;;;;;;6.15;3.25;;;;;;;;;;5072271;28;20253;-54
2020/12/15 01:41:57;;;;;;;7.45;3.70;;;;;;;;;;5071450;28;20231;-48
2020/12/15 01:44:24;;;;;;;6.15;3.80;;;;;;;;;;5078002;28;20226;-52
2020/12/15 01:46:52;;;;;;;7.22;3.83;;;;;;;;;;5093537;28;20211;-53
2020/12/15 01:49:45;;;;;;;5.90;3.72;;;;;;;;;;5092354;28;20196;-52
2020/12/15 01:52:13;;;;;;;5.22;3.13;;;;;;;;;;5075944;28;20305;-55
2020/12/15 01:54:45;;;;;;;4.60;3.10;;;;;;;;;;5090602;28;20221;-55
2020/12/15 02:00:00;;;;;;;4.68;3.33;;;;;;;;;;5089622;28;20208;-50
2020/12/15 02:02:43;;;;;;;4.15;3.53;;;;;;;;;;5091293;28;20298;-52
2020/12/15 02:05:13;;;;;;;5.90;2.92;;;;;;;;;;5093468;28;20207;-59
2020/12/15 02:07:41;;;;;;;6.05;3.88;;;;;;;;;;5092291;28;20201;-49
2020/12/15 02:10:14;;;;;;;3.80;3.22;;;;;;;;;;5091997;28;20200;-56
2020/12/15 02:12:51;;;;;;;6.03;3.08;;;;;;;;;;5090389;28;20215;-56
2020/12/15 02:15:25;;;;;;;8.60;4.07;;;;;;;;;;5091881;28;20221;-54
2020/12/15 02:17:53;;;;;;;5.63;2.92;;;;;;;;;;5092980;28;20195;-49
2020/12/15 02:20:23;;;;;;;9.77;4.50;;;;;;;;;;5091325;28;20219;-60
2020/12/15 02:22:54;;;;;;;6.63;3.75;;;;;;;;;;5092324;28;20227;-51
2020/12/15 02:25:24;;;;;;;5.82;3.80;;;;;;;;;;5092644;28;20185;-53
2020/12/15 02:27:56;;;;;;;5.07;2.90;;;;;;;;;;5092714;28;20193;-55
2020/12/15 02:30:24;;;;;;;5.82;3.75;;;;;;;;;;5092864;28;20199;-49
2020/12/15 02:32:54;;;;;;;5.80;3.45;;;;;;;;;;5092633;28;20225;-54
2020/12/15 02:35:20;;;;;;;4.55;3.70;;;;;;;;;;5092462;28;20216;-48
2020/12/15 02:37:47;;;;;;;7.20;3.65;;;;;;;;;;5092138;28;20208;-46
2020/12/15 02:40:19;;;;;;;6.00;4.38;;;;;;;;;;5092869;28;20253;-53
2020/12/15 02:42:54;;;;;;;5.95;4.28;;;;;;;;;;5090849;28;20229;-55
2020/12/15 02:45:21;;;;;;;8.15;3.92;;;;;;;;;;5090609;28;20333;-50
2020/12/15 02:47:57;;;;;;;8.60;4.28;;;;;;;;;;5070726;28;20244;-56
2020/12/15 02:50:24;;;;;;;7.60;3.90;;;;;;;;;;5073580;28;20218;-51
2020/12/15 02:52:51;;;;;;;5.35;3.58;;;;;;;;;;5072088;28;20206;-54
2020/12/15 02:55:25;;;;;;;7.03;3.85;;;;;;;;;;5070434;28;20265;-51
2020/12/15 02:57:51;;;;;;;6.00;3.45;;;;;;;;;;5070276;28;20316;-54
2020/12/15 03:02:46;;;;;;;6.90;3.60;;;;;;;;;;5069860;28;20228;-52
2020/12/15 03:05:13;;;;;;;7.43;4.40;;;;;;;;;;5070671;28;20332;-51
2020/12/15 03:07:40;;;;;;;5.32;3.65;;;;;;;;;;5072004;28;20267;-51
2020/12/15 03:10:08;;;;;;;6.63;4.22;;;;;;;;;;5073455;28;20220;-57
2020/12/15 03:12:51;;;;;;;5.63;4.15;;;;;;;;;;5075772;28;20183;-56
2020/12/15 03:15:18;;;;;;;6.70;3.97;;;;;;;;;;5076889;28;20213;-53
2020/12/15 03:17:53;;;;;;;6.05;4.63;;;;;;;;;;5077383;28;20240;-54
2020/12/15 03:20:33;;;;;;;8.23;4.20;;;;;;;;;;5077220;28;20211;-54
2020/12/15 03:23:01;;;;;;;6.07;4.03;;;;;;;;;;5075956;28;20277;-59
2020/12/15 03:25:36;;;;;;;5.88;3.92;;;;;;;;;;5076791;28;20219;-52
2020/12/15 03:28:17;;;;;;;7.55;3.63;;;;;;;;;;5075932;28;20210;-53
2020/12/15 03:30:46;;;;;;;7.85;4.30;;;;;;;;;;5075885;28;20269;-51
2020/12/15 03:33:24;;;;;;;5.78;3.95;;;;;;;;;;5077794;28;20218;-50
2020/12/15 03:35:51;;;;;;;7.43;4.05;;;;;;;;;;5077225;28;20196;-52
2020/12/15 03:38:19;;;;;;;5.43;3.78;;;;;;;;;;5078126;28;20203;-58
2020/12/15 03:40:53;;;;;;;6.78;4.22;;;;;;;;;;5067459;28;20280;-51
2020/12/15 03:43:20;;;;;;;3.95;3.50;;;;;;;;;;5074793;28;20254;-52
2020/12/15 03:45:54;;;;;;;8.40;3.75;;;;;;;;;;5072889;28;20201;-57
2020/12/15 03:48:30;;;;;;;6.65;4.30;;;;;;;;;;5074125;28;20212;-49
2020/12/15 03:51:06;;;;;;;9.88;4.45;;;;;;;;;;5073654;28;20207;-58
2020/12/15 03:53:49;;;;;;;6.15;3.67;;;;;;;;;;5073576;28;20201;-54
2020/12/15 03:56:18;;;;;;;5.40;4.25;;;;;;;;;;5074552;28;20212;-57
2020/12/15 03:59:02;;;;;;;6.68;4.50;;;;;;;;;;5074319;28;20263;-50
2020/12/15 04:01:28;;;;;;;7.40;4.60;;;;;;;;;;5067600;28;20232;-54
2020/12/15 04:03:56;;;;;;;6.50;4.18;;;;;;;;;;5052898;28;20293;-55
2020/12/15 04:06:26;;;;;;;5.82;4.20;;;;;;;;;;5052743;28;20193;-57
2020/12/15 04:08:52;;;;;;;8.77;4.15;;;;;;;;;;5051992;28;20206;-54
2020/12/15 04:11:19;;;;;;;8.45;5.28;;;;;;;;;;5053757;28;20409;-53
2020/12/15 04:13:46;;;;;;;11.77;4.85;;;;;;;;;;5054504;28;20194;-51
2020/12/15 04:16:20;;;;;;;9.57;4.40;;;;;;;;;;5054794;28;20212;-55
2020/12/15 04:18:47;;;;;;;6.15;4.07;;;;;;;;;;5055521;28;20385;-54
2020/12/15 04:21:14;;;;;;;9.68;4.70;;;;;;;;;;5054564;28;20568;-55
2020/12/15 04:23:41;;;;;;;6.90;4.35;;;;;;;;;;5052529;28;20259;-58
2020/12/15 04:26:18;;;;;;;7.18;4.72;;;;;;;;;;5050042;28;20206;-53
2020/12/15 04:28:50;;;;;;;5.97;4.35;;;;;;;;;;5055539;28;20212;-57
2020/12/15 04:31:16;;;;;;;7.75;4.63;;;;;;;;;;5055216;28;20205;-55
2020/12/15 04:33:45;;;;;;;7.15;4.55;;;;;;;;;;5054912;28;20212;-57
2020/12/15 04:36:12;;;;;;;6.82;4.50;;;;;;;;;;5055575;28;20449;-58
2020/12/15 04:38:46;;;;;;;8.35;5.05;;;;;;;;;;5054857;28;20223;-52
2020/12/15 04:41:31;;;;;;;6.95;4.50;;;;;;;;;;5053801;28;20216;-59
2020/12/15 04:44:11;;;;;;;8.40;5.00;;;;;;;;;;5055347;28;20225;-56
2020/12/15 04:46:53;;;;;;;6.35;4.50;;;;;;;;;;5054387;28;20340;-57
2020/12/15 04:49:26;;;;;;;6.50;4.30;;;;;;;;;;5054572;28;20505;-55
2020/12/15 04:51:58;;;;;;;7.57;4.88;;;;;;;;;;5054228;28;20273;-53
2020/12/15 04:54:39;;;;;;;7.53;4.55;;;;;;;;;;5052958;28;20230;-51
2020/12/15 04:57:06;;;;;;;8.43;4.55;;;;;;;;;;5053232;28;20211;-52
2020/12/15 04:59:34;;;;;;;10.40;5.03;;;;;;;;;;5051598;28;20261;-50
2020/12/15 05:02:02;;;;;;;8.55;4.30;;;;;;;;;;5054471;28;20241;-49
2020/12/15 05:04:40;;;;;;;8.75;5.10;;;;;;;;;;5070741;28;20222;-51
2020/12/15 05:07:08;;;;;;;8.10;4.70;;;;;;;;;;5065476;28;20211;-56
2020/12/15 05:09:46;;;;;;;8.95;5.00;;;;;;;;;;5068617;28;20211;-50
2020/12/15 05:12:14;;;;;;;9.20;5.22;;;;;;;;;;5067608;28;20240;-59
2020/12/15 05:14:41;;;;;;;10.07;5.65;;;;;;;;;;5054698;28;20222;-55
2020/12/15 05:17:12;;;;;;;6.47;5.03;;;;;;;;;;5052007;28;20207;-60
2020/12/15 05:19:45;;;;;;;8.77;5.72;;;;;;;;;;5051452;28;20259;-56
2020/12/15 05:22:13;;;;;;;9.88;5.95;;;;;;;;;;5050826;28;20217;-58
2020/12/15 05:24:46;;;;;;;7.05;4.85;;;;;;;;;;5051150;28;20209;-61
2020/12/15 05:27:30;;;;;;;8.95;5.18;;;;;;;;;;5052372;28;20204;-57
2020/12/15 05:30:07;;;;;;;11.63;5.70;;;;;;;;;;5050681;28;21122;-57
2020/12/15 05:32:34;;;;;;;8.60;5.35;;;;;;;;;;5071908;28;20191;-56
2020/12/15 05:35:11;;;;;;;9.23;5.85;;;;;;;;;;5074568;28;20204;-55
2020/12/15 05:37:48;;;;;;;7.40;4.97;;;;;;;;;;5074673;28;20199;-55
2020/12/15 05:40:15;;;;;;;8.40;5.60;;;;;;;;;;5072765;28;20195;-52
2020/12/15 05:42:42;;;;;;;8.55;5.90;;;;;;;;;;5073566;28;20250;-61
2020/12/15 05:45:09;;;;;;;6.72;4.75;;;;;;;;;;5072982;28;20422;-55
2020/12/15 05:48:00;;;;;;;6.63;5.05;;;;;;;;;;5073679;28;20180;-55
2020/12/15 05:50:27;;;;;;;10.88;5.85;;;;;;;;;;5066308;28;20209;-57
2020/12/15 05:53:18;;;;;;;7.30;5.15;;;;;;;;;;5051276;28;20209;-59
2020/12/15 05:55:47;;;;;;;10.98;5.43;;;;;;;;;;5051536;28;20249;-55
2020/12/15 05:58:16;;;;;;;6.72;4.53;;;;;;;;;;5051705;28;20235;-49
2020/12/15 06:00:43;;;;;;;10.32;6.63;;;;;;;;;;5052155;28;20205;-55
2020/12/15 06:03:11;;;;;;;13.18;6.35;;;;;;;;;;5051731;28;20236;-55
2020/12/15 06:06:00;;;;;;;9.48;6.10;;;;;;;;;;5049553;28;20272;-54
2020/12/15 06:08:37;;;;;;;7.38;5.53;;;;;;;;;;5067154;28;20216;-60
2020/12/15 06:11:14;;;;;;;9.23;6.35;;;;;;;;;;5065128;28;20233;-57
2020/12/15 06:13:42;;;;;;;9.88;6.15;;;;;;;;;;5070860;28;20203;-55
2020/12/15 06:16:18;;;;;;;12.32;6.30;;;;;;;;;;5066297;28;20236;-55
2020/12/15 06:18:49;;;;;;;7.30;5.63;;;;;;;;;;5051504;28;20200;-57
2020/12/15 06:21:16;;;;;;;9.95;7.20;;;;;;;;;;5060560;28;20291;-60
2020/12/15 06:23:50;;;;;;;12.07;5.47;;;;;;;;;;5072157;28;20588;-59
2020/12/15 06:26:32;;;;;;;11.82;6.25;;;;;;;;;;5070369;28;20298;-58
2020/12/15 06:29:09;;;;;;;9.65;6.95;;;;;;;;;;5071169;28;20193;-54
2020/12/15 06:31:41;;;;;;;11.55;7.00;;;;;;;;;;5071574;28;20261;-57
2020/12/15 06:34:09;;;;;;;9.27;6.20;;;;;;;;;;5069811;28;20218;-56
2020/12/15 06:39:14;;;;;;;8.23;7.03;;;;;;;;;;5070264;28;20250;-56
2020/12/15 06:47:26;;;;;;;10.70;7.20;;;;;;;;;;5069774;28;20211;-55
2020/12/15 06:49:53;;;;;;;7.88;6.97;;;;;;;;;;5074559;28;20184;-49
2020/12/15 06:52:27;;;;;;;10.35;7.05;;;;;;;;;;5073343;28;20207;-57
2020/12/15 06:54:59;;;;;;;10.80;7.05;;;;;;;;;;5071249;28;20213;-57
2020/12/15 06:57:35;;;;;;;10.23;6.80;;;;;;;;;;5074410;28;20216;-50
2020/12/15 07:00:11;;;;;;;12.85;7.20;;;;;;;;;;5070417;28;20204;-56
2020/12/15 07:02:38;;;;;;;13.20;7.90;;;;;;;;;;5073286;28;20230;-47
2020/12/15 07:05:20;;;;;;;9.40;6.65;;;;;;;;;;5073132;28;20216;-58
2020/12/15 07:07:59;;;;;;;9.70;7.60;;;;;;;;;;5053232;28;20212;-59
2020/12/15 07:10:41;;;;;;;12.13;7.90;;;;;;;;;;5053839;28;20206;-53
2020/12/15 07:13:09;;;;;;;12.82;7.43;;;;;;;;;;5055746;28;20215;-59
2020/12/15 07:15:43;;;;;;;14.68;8.05;;;;;;;;;;5054052;28;20214;-54
2020/12/15 07:18:12;;;;;;;11.05;7.90;;;;;;;;;;5054205;28;20203;-56
2020/12/15 07:20:39;;;;;;;8.68;7.15;;;;;;;;;;5063978;28;20216;-57
2020/12/15 07:23:06;;;;;;;11.43;8.05;;;;;;;;;;5076565;28;20293;-49
2020/12/15 07:25:51;;;;;;;10.63;8.25;;;;;;;;;;5076045;28;20227;-56
2020/12/15 07:28:23;;;;;;;9.65;7.50;;;;;;;;;;5075458;28;20278;-52
2020/12/15 07:30:56;;;;;;;10.93;8.20;;;;;;;;;;5075233;28;20209;-57
2020/12/15 07:33:33;;;;;;;10.65;7.78;;;;;;;;;;5074867;28;20205;-48
2020/12/15 07:36:10;;;;;;;12.05;9.20;;;;;;;;;;5065357;28;20219;-59
2020/12/15 07:38:46;;;;;;;16.50;9.05;;;;;;;;;;5071970;28;20569;-55
2020/12/15 07:41:21;;;;;;;15.15;9.57;;;;;;;;;;5072824;28;20220;-55
2020/12/15 07:43:59;;;;;;;12.30;8.85;;;;;;;;;;5072513;28;20224;-57
2020/12/15 07:49:20;;;;;;;12.60;9.57;;;;;;;;;;5053872;28;20189;-54
2020/12/15 07:51:52;;;;;;;11.75;8.65;;;;;;;;;;5053938;28;20181;-52
2020/12/15 07:54:19;;;;;;;12.65;8.60;;;;;;;;;;5067929;28;20215;-59
2020/12/15 07:57:03;;;;;;;12.48;10.00;;;;;;;;;;5073780;28;20207;-59
2020/12/15 07:59:34;;;;;;;12.75;9.88;;;;;;;;;;5073989;28;20212;-53
2020/12/15 08:02:19;;;;;;;17.55;15.43;;;;;;;;;;5071107;28;20216;-57
2020/12/15 08:05:05;;;;;;;19.25;9.10;;;;;;;;;;5072823;28;20639;-52
2020/12/15 08:07:33;;;;;;;14.00;9.82;;;;;;;;;;5072234;28;20482;-57
2020/12/15 08:10:09;;;;;;;14.57;10.07;;;;;;;;;;5073646;28;20532;-56
2020/12/15 08:12:40;;;;;;;14.85;10.07;;;;;;;;;;5069934;28;20215;-54
2020/12/15 08:15:11;;;;;;;17.77;9.38;;;;;;;;;;5072172;28;20200;-52
2020/12/15 08:17:53;;;;;;;11.45;9.27;;;;;;;;;;5071803;28;20256;-55
2020/12/15 08:20:28;;;;;;;16.13;8.95;;;;;;;;;;5070609;28;20223;-56
2020/12/15 08:23:10;;;;;;;17.00;9.60;;;;;;;;;;5071025;28;20235;-50
2020/12/15 08:25:53;;;;;;;12.48;10.10;;;;;;;;;;5072910;28;20734;-55
2020/12/15 08:34:17;;;;;;;15.55;10.80;;;;;;;;;;5063318;28;20221;-54
2020/12/15 08:37:05;;;;;;;13.13;10.13;;;;;;;;;;5072958;28;20200;-57
2020/12/15 08:39:38;;;;;;;14.38;10.23;;;;;;;;;;5063615;28;20203;-56
2020/12/15 08:42:10;;;;;;;13.23;9.50;;;;;;;;;;5073840;28;20211;-55
2020/12/15 08:44:46;;;;;;;14.15;10.35;;;;;;;;;;5071014;28;20217;-57
2020/12/15 08:47:19;;;;;;;16.70;9.98;;;;;;;;;;5075786;28;20208;-55
2020/12/15 08:49:50;;;;;;;13.98;9.90;;;;;;;;;;5056977;28;20207;-53
2020/12/15 08:52:23;;;;;;;12.75;9.57;;;;;;;;;;5074219;28;20196;-54
2020/12/15 08:54:57;;;;;;;13.75;10.68;;;;;;;;;;5072111;28;20282;-51
2020/12/15 08:57:27;;;;;;;16.83;9.65;;;;;;;;;;5071989;28;20231;-50
2020/12/15 09:00:12;;;;;;;13.68;9.70;;;;;;;;;;5075468;28;20205;-50
2020/12/15 09:02:43;;;;;;;10.73;8.80;;;;;;;;;;5074600;28;20212;-55
2020/12/15 09:05:11;;;;;;;12.77;9.80;;;;;;;;;;5058496;28;20224;-51
2020/12/15 09:07:56;;;;;;;12.52;9.55;;;;;;;;;;5073334;28;20461;-58
2020/12/15 09:10:26;;;;;;;12.20;9.20;;;;;;;;;;5074764;28;20450;-53
2020/12/15 09:16:15;;;;;;;11.00;9.05;;;;;;;;;;5072586;28;20195;-55
2020/12/15 09:18:44;;;;;;;11.73;8.52;;;;;;;;;;5063657;28;20204;-60
2020/12/15 09:21:28;;;;;;;11.73;8.48;;;;;;;;;;5073333;28;20485;-57
2020/12/15 09:23:55;;;;;;;16.95;10.07;;;;;;;;;;5068264;28;20276;-54
2020/12/15 09:26:39;;;;;;;10.63;8.20;;;;;;;;;;5071300;28;20212;-59
2020/12/15 09:29:09;;;;;;;14.73;9.65;;;;;;;;;;5064908;28;20250;-62
2020/12/15 09:32:01;;;;;;;11.35;8.32;;;;;;;;;;5070583;28;20197;-55
2020/12/15 09:34:29;;;;;;;13.68;8.75;;;;;;;;;;5060883;28;20236;-54
2020/12/15 09:37:10;;;;;;;11.40;7.78;;;;;;;;;;5051564;28;20224;-56
2020/12/15 09:39:39;;;;;;;14.18;8.35;;;;;;;;;;5062135;28;20207;-55
2020/12/15 09:42:07;;;;;;;13.93;8.80;;;;;;;;;;5067806;28;20210;-53
2020/12/15 09:44:35;;;;;;;15.25;9.40;;;;;;;;;;5046974;28;20249;-53
2020/12/15 09:47:22;;;;;;;10.43;8.50;;;;;;;;;;5011388;28;20209;-56
2020/12/15 09:49:58;;;;;;;11.50;8.00;;;;;;;;;;5014947;28;20438;-56
2020/12/15 09:52:51;;;;;;;13.75;8.13;;;;;;;;;;5019851;28;20202;-59
2020/12/15 09:55:55;;;;;;;9.63;7.70;;;;;;;;;;5034098;28;20269;-59
2020/12/15 09:58:28;;;;;;;10.98;8.57;;;;;;;;;;5031890;28;20523;-57
2020/12/15 10:00:55;;;;;;;10.10;8.73;;;;;;;;;;5032552;28;20264;-52
2020/12/15 10:03:25;;;;;;;35.40;28.52;;;;;;;;;;5031515;28;20484;-56
2020/12/15 10:05:52;;;;;;;13.48;8.07;;;;;;;;;;5032314;28;20224;-59
2020/12/15 10:08:19;;;;;;;11.20;8.57;;;;;;;;;;5032324;28;20222;-56
2020/12/15 10:10:56;;;;;;;10.25;8.20;;;;;;;;;;5033453;28;20463;-53
2020/12/15 10:13:24;;;;;;;11.07;8.10;;;;;;;;;;5032614;28;20206;-57
2020/12/15 10:15:51;;;;;;;10.52;8.20;;;;;;;;;;5034624;28;20456;-57
2020/12/15 10:18:18;;;;;;;11.10;7.80;;;;;;;;;;5052683;28;20205;-59
2020/12/15 10:20:55;;;;;;;14.13;7.80;;;;;;;;;;5045427;28;20194;-58
2020/12/15 10:23:37;;;;;;;11.32;7.53;;;;;;;;;;5033771;28;20497;-51
2020/12/15 10:26:41;;;;;;;8.82;7.43;;;;;;;;;;5032127;28;20206;-61
2020/12/15 10:29:09;;;;;;;11.47;6.97;;;;;;;;;;5043172;28;20666;-54
2020/12/15 10:31:36;;;;;;;11.10;8.33;;;;;;;;;;5051768;28;20472;-54
2020/12/15 10:34:03;;;;;;;12.67;7.90;;;;;;;;;;5050450;28;20491;-59
2020/12/15 10:36:31;;;;;;;13.17;8.00;;;;;;;;;;5051385;28;20444;-52
2020/12/15 10:39:05;;;;;;;11.23;7.35;;;;;;;;;;5050838;28;20583;-57
2020/12/15 10:41:43;;;;;;;11.03;8.87;;;;;;;;;;5051605;28;20252;-51
2020/12/15 10:44:14;;;;;;;10.83;8.03;;;;;;;;;;5039818;28;20555;-59
2020/12/15 10:46:46;;;;;;;12.67;7.83;;;;;;;;;;5029954;28;20457;-53
2020/12/15 10:49:16;;;;;;;10.50;7.30;;;;;;;;;;5041556;28;20444;-62
2020/12/15 10:52:07;;;;;;;10.20;7.75;;;;;;;;;;5045952;28;20503;-56
2020/12/15 10:57:47;;;;;;;16.73;10.23;;;;;;;;;;5046717;28;20491;-55
2020/12/15 11:00:16;;;;;;;10.10;7.43;;;;;;;;;;5049845;28;20489;-57
2020/12/15 11:02:45;;;;;;;9.40;7.07;;;;;;;;;;5051590;28;20216;-61
2020/12/15 11:05:12;;;;;;;12.47;7.37;;;;;;;;;;5038030;28;20479;-57
2020/12/15 11:07:52;;;;;;;9.73;7.50;;;;;;;;;;5032048;28;20457;-52
2020/12/15 11:10:37;;;;;;;15.13;8.33;;;;;;;;;;5039415;28;20479;-55
2020/12/15 11:13:17;;;;;;;13.83;8.10;;;;;;;;;;5050868;28;20475;-56
2020/12/15 11:15:45;;;;;;;11.53;7.33;;;;;;;;;;5064890;28;20568;-56
2020/12/15 11:18:23;;;;;;;12.33;7.17;;;;;;;;;;5071160;28;20447;-60
2020/12/15 11:23:38;;;;;;;15.93;7.00;;;;;;;;;;5064265;28;20489;-52
2020/12/15 11:26:22;;;;;;;12.60;7.63;;;;;;;;;;5063865;28;20530;-56
2020/12/15 11:28:53;;;;;;;10.17;7.37;;;;;;;;;;5066265;28;20463;-56
2020/12/15 11:31:21;;;;;;;8.83;7.30;;;;;;;;;;5071320;28;20492;-60
2020/12/15 11:33:48;;;;;;;12.67;7.83;;;;;;;;;;5074331;28;20515;-55
2020/12/15 11:36:17;;;;;;;10.43;8.10;;;;;;;;;;5076793;28;20497;-56
2020/12/15 11:38:45;;;;;;;8.70;6.27;;;;;;;;;;5076563;28;20463;-56
2020/12/15 11:41:27;;;;;;;14.23;7.70;;;;;;;;;;5074692;28;20492;-56
2020/12/15 11:43:55;;;;;;;9.97;6.60;;;;;;;;;;5067804;28;20490;-57
2020/12/15 11:46:26;;;;;;;14.37;9.60;;;;;;;;;;5063132;28;20432;-60
2020/12/15 11:49:00;;;;;;;12.23;8.47;;;;;;;;;;5074100;28;20464;-56
2020/12/15 11:51:27;;;;;;;8.57;6.80;;;;;;;;;;5074649;28;20451;-53
2020/12/15 11:54:13;;;;;;;9.10;7.43;;;;;;;;;;5075071;28;20479;-57
2020/12/15 11:56:52;;;;;;;10.30;7.37;;;;;;;;;;5057288;28;20455;-58
2020/12/15 11:59:21;;;;;;;10.10;8.20;;;;;;;;;;5070742;28;20594;-55
2020/12/15 12:01:59;;;;;;;12.53;9.23;;;;;;;;;;5073677;28;20455;-57
2020/12/15 12:04:30;;;;;;;12.40;8.97;;;;;;;;;;5073155;28;20491;-60
2020/12/15 12:09:45;;;;;;;18.83;8.77;;;;;;;;;;5068018;28;20435;-54
2020/12/15 12:12:29;;;;;;;11.97;8.20;;;;;;;;;;5072413;28;20431;-60
2020/12/15 12:15:10;;;;;;;11.95;8.25;;;;;;;;;;5021420;28;20443;-52
2020/12/15 12:17:43;;;;;;;18.90;8.30;;;;;;;;;;5072068;28;20214;-58
2020/12/15 12:20:19;;;;;;;10.67;8.27;;;;;;;;;;5057480;28;20463;-54
2020/12/15 12:22:48;;;;;;;15.17;10.60;;;;;;;;;;5073360;28;20907;-55
2020/12/15 12:25:21;;;;;;;12.30;8.87;;;;;;;;;;5072069;28;20517;-56
2020/12/15 12:27:55;;;;;;;17.00;9.60;;;;;;;;;;5074362;28;20458;-56
2020/12/15 12:30:22;;;;;;;17.43;10.37;;;;;;;;;;5074912;28;20437;-56
2020/12/15 12:32:51;;;;;;;12.10;9.80;;;;;;;;;;5074110;28;20474;-54
2020/12/15 12:35:36;;;;;;;15.27;9.80;;;;;;;;;;5071897;28;20456;-58
2020/12/15 12:38:12;;;;;;;11.70;8.87;;;;;;;;;;5058850;28;20467;-63
2020/12/15 12:40:38;;;;;;;13.47;8.83;;;;;;;;;;5074515;28;20466;-57
2020/12/15 12:43:08;;;;;;;11.00;9.07;;;;;;;;;;5068941;28;20533;-55
2020/12/15 12:45:41;;;;;;;14.50;10.50;;;;;;;;;;5052209;28;20460;-51
2020/12/15 12:51:33;;;;;;;15.07;10.40;;;;;;;;;;5051450;28;20448;-57
2020/12/15 12:54:31;;;;;;;14.20;9.47;;;;;;;;;;5040753;28;20455;-58
2020/12/15 12:57:33;;;;;;;19.70;11.03;;;;;;;;;;5046820;28;20452;-56
2020/12/15 13:00:06;;;;;;;16.87;10.83;;;;;;;;;;5049693;28;20451;-51
2020/12/15 13:05:36;;;;;;;15.00;9.47;;;;;;;;;;5050822;28;20436;-56
2020/12/15 13:08:04;;;;;;;17.90;10.30;;;;;;;;;;5063111;28;20459;-55
2020/12/15 13:13:29;;;;;;;10.97;8.63;;;;;;;;;;5056980;28;20462;-61
2020/12/15 13:16:01;;;;;;;14.53;9.73;;;;;;;;;;5070662;28;20449;-59
2020/12/15 13:18:40;;;;;;;17.80;11.60;;;;;;;;;;5071641;28;20506;-58
2020/12/15 13:21:27;;;;;;;15.50;10.07;;;;;;;;;;5071661;28;20469;-58
2020/12/15 13:23:59;;;;;;;15.47;11.23;;;;;;;;;;5064863;28;20486;-51
2020/12/15 13:26:31;;;;;;;13.90;9.70;;;;;;;;;;5072750;28;20461;-54
2020/12/15 13:29:06;;;;;;;22.10;12.83;;;;;;;;;;5071057;28;20455;-59
2020/12/15 13:40:24;;;;;;;19.10;12.40;;;;;;;;;;5050041;28;20448;-59
2020/12/15 13:43:19;;;;;;;17.73;10.97;;;;;;;;;;5037892;28;20451;-57
2020/12/15 13:45:50;;;;;;;16.40;11.67;;;;;;;;;;5044352;28;20468;-54
2020/12/15 13:48:27;;;;;;;15.50;11.57;;;;;;;;;;5034344;28;20441;-56
2020/12/15 13:51:19;;;;;;;18.30;12.43;;;;;;;;;;5048999;28;20460;-58
2020/12/15 13:54:12;;;;;;;14.77;10.87;;;;;;;;;;5042496;28;20639;-61
2020/12/15 13:56:55;;;;;;;17.97;9.57;;;;;;;;;;5010938;28;20496;-60
2020/12/15 14:02:39;;;;;;;24.63;14.17;;;;;;;;;;5049615;28;20454;-50
2020/12/15 14:05:17;;;;;;;18.53;12.17;;;;;;;;;;5045603;28;20484;-52
2020/12/15 14:07:46;;;;;;;14.67;11.03;;;;;;;;;;5049520;28;20632;-58
2020/12/15 14:10:27;;;;;;;17.65;11.30;;;;;;;;;;5058501;28;20474;-57
2020/12/15 14:12:55;;;;;;;22.90;8.97;;;;;;;;;;5070939;28;20214;-56
2020/12/15 14:15:23;;;;;;;20.00;10.50;;;;;;;;;;5070484;28;20473;-54
2020/12/15 14:20:49;;;;;;;15.80;12.23;;;;;;;;;;5071685;28;20444;-57
2020/12/15 14:23:18;;;;;;;12.50;9.53;;;;;;;;;;5067915;28;20495;-54
2020/12/15 14:25:48;;;;;;;14.00;10.40;;;;;;;;;;5053147;28;20558;-57
2020/12/15 14:34:01;;;;;;;16.13;10.87;;;;;;;;;;5047340;28;20487;-49
2020/12/15 14:39:19;;;;;;;12.43;9.50;;;;;;;;;;5066916;28;20517;-56
2020/12/15 14:41:46;;;;;;;13.33;10.00;;;;;;;;;;5068269;28;20486;-57
2020/12/15 14:44:31;;;;;;;15.00;11.60;;;;;;;;;;5069451;28;20471;-56
2020/12/15 14:47:14;;;;;;;13.30;9.33;;;;;;;;;;5046579;28;20753;-55
2020/12/15 14:49:56;;;;;;;13.63;10.80;;;;;;;;;;5045703;28;20661;-53
2020/12/15 14:52:51;;;;;;;15.07;10.70;;;;;;;;;;5049359;28;21013;-53
2020/12/15 14:55:33;;;;;;;12.05;8.88;;;;;;;;;;5048893;28;20455;-55
2020/12/15 14:58:08;;;;;;;17.20;12.20;;;;;;;;;;5045147;28;20220;-56
2020/12/15 15:03:07;;;;;;;15.67;10.93;;;;;;;;;;5066526;28;20542;-55
2020/12/15 15:08:32;;;;;;;10.80;8.33;;;;;;;;;;5047863;28;20527;-55
2020/12/15 15:11:17;;;;;;;14.43;10.20;;;;;;;;;;5044535;28;20476;-59
2020/12/15 15:13:49;;;;;;;16.50;12.90;;;;;;;;;;5053442;28;20707;-52
2020/12/15 15:16:22;;;;;;;14.20;11.27;;;;;;;;;;5049624;28;20456;-57
2020/12/15 15:18:57;;;;;;;13.20;10.57;;;;;;;;;;5051412;28;20444;-52
2020/12/15 15:21:25;;;;;;;16.60;11.27;;;;;;;;;;5011694;28;20463;-53
2020/12/15 15:24:17;;;;;;;12.63;10.20;;;;;;;;;;5055356;28;20478;-52
2020/12/15 15:26:51;;;;;;;16.63;10.27;;;;;;;;;;5057128;28;20240;-58
2020/12/15 15:29:24;;;;;;;13.10;9.33;;;;;;;;;;5068542;28;20502;-55
2020/12/15 15:35:01;;;;;;;15.13;11.67;;;;;;;;;;5068805;28;20451;-54
2020/12/15 15:37:31;;;;;;;19.63;13.30;;;;;;;;;;5055610;28;20954;-54
2020/12/15 15:42:44;;;;;;;18.57;12.30;;;;;;;;;;5069993;28;20477;-57
2020/12/15 15:45:14;;;;;;;16.73;12.67;;;;;;;;;;5054258;28;20606;-57
2020/12/15 15:47:50;;;;;;;18.60;12.10;;;;;;;;;;5052846;28;20470;-53
2020/12/15 15:50:43;;;;;;;19.33;12.40;;;;;;;;;;5066830;28;20836;-52
2020/12/15 15:53:25;;;;;;;20.93;14.43;;;;;;;;;;5068809;28;20482;-60
2020/12/15 15:56:22;;;;;;;17.90;12.80;;;;;;;;;;5071369;28;20463;-60
2020/12/15 15:59:08;;;;;;;17.13;11.50;;;;;;;;;;5066993;28;20954;-56
2020/12/15 16:01:36;;;;;;;21.10;12.77;;;;;;;;;;5071206;28;20458;-54
2020/12/15 16:04:06;;;;;;;19.73;13.63;;;;;;;;;;5071840;28;20491;-52
2020/12/15 16:06:43;;;;;;;15.43;11.13;;;;;;;;;;5067197;28;20539;-52
2020/12/15 16:09:23;;;;;;;19.10;11.50;;;;;;;;;;5068712;28;20499;-57
2020/12/15 16:12:02;;;;;;;13.83;10.87;;;;;;;;;;5071185;28;20463;-53
2020/12/15 16:14:56;;;;;;;16.57;11.20;;;;;;;;;;5060028;28;20473;-54
2020/12/15 16:17:41;;;;;;;17.00;10.60;;;;;;;;;;5071684;28;20478;-49
2020/12/15 16:20:14;;;;;;;14.07;9.90;;;;;;;;;;5064477;28;20469;-53
2020/12/15 16:22:42;;;;;;;15.50;12.00;;;;;;;;;;5071408;28;20523;-54
2020/12/15 16:25:14;;;;;;;17.10;11.57;;;;;;;;;;5071080;28;20739;-57
2020/12/15 16:27:48;;;;;;;14.07;9.80;;;;;;;;;;5070667;28;20464;-56
2020/12/15 16:30:31;;;;;;;13.87;10.57;;;;;;;;;;5071215;28;20435;-51
2020/12/15 16:33:09;;;;;;;19.73;12.37;;;;;;;;;;5059289;28;20468;-61
2020/12/15 16:35:39;;;;;;;17.23;12.93;;;;;;;;;;5045989;28;20619;-49